createdAt,value
2022-10-09T00:01:19.335Z,100033.38
2022-10-09T00:03:47.881Z,100040.91
2022-10-09T00:06:17.708Z,100026.91
2022-10-09T00:08:44.497Z,100025.28
2022-10-09T00:11:14.213Z,100030.41
2022-10-09T00:13:41.160Z,100026.34
2022-10-09T00:16:10.378Z,100040.59
2022-10-09T00:18:37.390Z,100034.66
2022-10-09T00:21:05.246Z,100026.84
2022-10-09T00:23:33.134Z,100035.44
2022-10-09T00:26:01.613Z,100032.44
2022-10-09T00:28:31.754Z,100036.75
2022-10-09T00:31:04.200Z,100026.25
2022-10-09T00:33:30.711Z,100033.50
2022-10-09T00:35:57.258Z,100030.81
2022-10-09T00:38:23.740Z,100039.44
2022-10-09T00:40:52.091Z,100032.44
2022-10-09T00:43:37.496Z,100028.13
2022-10-09T00:46:04.352Z,100031.88
2022-10-09T00:48:31.661Z,100039.63
2022-10-09T00:51:00.876Z,100026.72
2022-10-09T00:53:29.966Z,100019.41
2022-10-09T00:55:58.384Z,100032.84
2022-10-09T00:58:25.719Z,100023.72
2022-10-09T01:00:52.802Z,100027.47
2022-10-09T01:03:19.293Z,100025.31
2022-10-09T01:05:53.979Z,100025.00
2022-10-09T01:08:28.076Z,100032.75
2022-10-09T01:11:04.610Z,100029.78
2022-10-09T01:13:37.003Z,100028.16
2022-10-09T01:16:08.674Z,100028.66
2022-10-09T01:18:44.231Z,100030.53
2022-10-09T01:21:16.819Z,100025.13
2022-10-09T01:23:56.547Z,100022.34
2022-10-09T01:26:50.873Z,100030.69
2022-10-09T01:29:19.774Z,100028.00
2022-10-09T01:31:48.971Z,100025.03
2022-10-09T01:34:19.007Z,100029.06
2022-10-09T01:36:46.269Z,100025.00
2022-10-09T01:39:17.154Z,100028.19
2022-10-09T01:41:44.346Z,100023.88
2022-10-09T01:44:20.110Z,100022.25
2022-10-09T01:46:47.205Z,100022.53
2022-10-09T01:49:32.377Z,100028.41
2022-10-09T01:52:05.267Z,100016.59
2022-10-09T01:54:37.493Z,100021.97
2022-10-09T01:57:06.805Z,100013.59
2022-10-09T01:59:37.942Z,100020.31
2022-10-09T02:02:06.172Z,100010.88
2022-10-09T02:04:33.806Z,100009.97
2022-10-09T02:07:00.448Z,100006.47
2022-10-09T02:09:28.803Z,100018.56
2022-10-09T02:12:00.515Z,100013.44
2022-10-09T02:14:27.395Z,100014.25
2022-10-09T02:17:02.425Z,100009.91
2022-10-09T02:19:34.772Z,100018.22
2022-10-09T02:22:07.906Z,100005.28
2022-10-09T02:24:37.757Z,100007.94
2022-10-09T02:27:05.128Z,100014.38
2022-10-09T02:29:31.959Z,100015.44
2022-10-09T02:32:00.088Z,100007.09
2022-10-09T02:34:26.815Z,100018.66
2022-10-09T02:36:53.429Z,100019.47
2022-10-09T02:39:19.927Z,100007.63
2022-10-09T02:41:46.438Z,100009.50
2022-10-09T02:44:12.939Z,100007.38
2022-10-09T02:46:39.480Z,100006.56
2022-10-09T02:49:07.923Z,100018.13
2022-10-09T02:51:34.829Z,100009.78
2022-10-09T02:54:01.544Z,100018.34
2022-10-09T02:56:28.368Z,100023.13
2022-10-09T02:58:54.994Z,100037.63
2022-10-09T03:01:21.946Z,100022.84
2022-10-09T03:03:48.490Z,100025.53
2022-10-09T03:06:19.202Z,100022.28
2022-10-09T03:08:47.444Z,100017.97
2022-10-09T03:11:15.352Z,100017.97
2022-10-09T03:13:42.451Z,100018.44
2022-10-09T03:16:11.481Z,100025.41
2022-10-09T03:18:38.860Z,100019.72
2022-10-09T03:21:05.720Z,100028.25
2022-10-09T03:23:33.999Z,100019.38
2022-10-09T03:26:02.096Z,100029.34
2022-10-09T03:28:29.339Z,100026.94
2022-10-09T03:30:56.520Z,100029.63
2022-10-09T03:33:23.438Z,100022.34
2022-10-09T03:35:50.123Z,100020.16
2022-10-09T03:38:17.263Z,100015.78
2022-10-09T03:40:45.197Z,100018.94
2022-10-09T03:43:11.697Z,100022.94
2022-10-09T03:45:39.598Z,100022.13
2022-10-09T03:48:06.327Z,100026.44
2022-10-09T03:50:33.079Z,100029.88
2022-10-09T03:52:59.623Z,100028.25
2022-10-09T03:55:26.219Z,100027.91
2022-10-09T03:57:54.063Z,100031.13
2022-10-09T04:00:20.995Z,100033.22
2022-10-09T04:02:48.096Z,100030.78
2022-10-09T04:05:15.070Z,100037.44
2022-10-09T04:07:41.698Z,100042.00
2022-10-09T04:10:09.060Z,100036.34
2022-10-09T04:12:35.971Z,100038.69
2022-10-09T04:15:04.372Z,100048.59
2022-10-09T04:17:30.949Z,100043.25
2022-10-09T04:19:57.611Z,100034.06
2022-10-09T04:22:24.303Z,100037.81
2022-10-09T04:24:50.776Z,100042.84
2022-10-09T04:27:17.350Z,100042.28
2022-10-09T04:29:43.912Z,100042.78
2022-10-09T04:32:11.737Z,100039.53
2022-10-09T04:34:38.283Z,100041.41
2022-10-09T04:37:04.775Z,100040.00
2022-10-09T04:39:31.259Z,100041.31
2022-10-09T04:41:57.758Z,100032.44
2022-10-09T04:44:24.317Z,100031.09
2022-10-09T04:46:51.020Z,100028.41
2022-10-09T04:49:18.963Z,100025.97
2022-10-09T04:51:45.469Z,100025.97
2022-10-09T04:54:12.474Z,100022.22
2022-10-09T04:56:39.319Z,100023.03
2022-10-09T04:59:05.966Z,100025.72
2022-10-09T05:01:37.239Z,100017.91
2022-10-09T05:04:05.036Z,100020.59
2022-10-09T05:06:32.886Z,100016.78
2022-10-09T05:08:59.405Z,100022.41
2022-10-09T05:11:26.099Z,100012.47
2022-10-09T05:13:54.360Z,100007.59
2022-10-09T05:16:23.444Z,100002.72
2022-10-09T05:18:51.498Z,100001.34
2022-10-09T05:21:18.236Z,100003.19
2022-10-09T05:23:46.358Z,100002.41
2022-10-09T05:26:15.283Z,100008.84
2022-10-09T05:28:42.423Z,100014.09
2022-10-09T05:31:10.083Z,100014.59
2022-10-09T05:33:36.675Z,100009.47
2022-10-09T05:36:05.259Z,100008.44
2022-10-09T05:38:33.043Z,100006.22
2022-10-09T05:41:02.935Z,100005.75
2022-10-09T05:43:31.305Z,100011.94
2022-10-09T05:46:05.821Z,100016.31
2022-10-09T05:48:32.477Z,100014.75
2022-10-09T05:51:06.871Z,100010.19
2022-10-09T05:53:33.417Z,100021.72
2022-10-09T05:56:14.232Z,100021.72
2022-10-09T05:58:40.927Z,100014.50
2022-10-09T06:01:07.556Z,100013.44
2022-10-09T06:03:34.321Z,100017.41
2022-10-09T06:06:01.731Z,100018.16
2022-10-09T06:08:28.403Z,100010.38
2022-10-09T06:10:54.939Z,100014.91
2022-10-09T06:13:23.019Z,100018.06
2022-10-09T06:15:53.312Z,100021.03
2022-10-09T06:18:20.433Z,100029.88
2022-10-09T06:20:53.581Z,100029.38
2022-10-09T06:23:20.349Z,100035.88
2022-10-09T06:25:51.722Z,100037.56
2022-10-09T06:28:18.299Z,100040.25
2022-10-09T06:30:46.241Z,100035.81
2022-10-09T06:33:13.012Z,100038.31
2022-10-09T06:35:39.724Z,100040.00
2022-10-09T06:38:06.356Z,100039.28
2022-10-09T06:40:34.845Z,100035.63
2022-10-09T06:43:01.380Z,100037.53
2022-10-09T06:45:27.999Z,100035.75
2022-10-09T06:47:55.889Z,100040.38
2022-10-09T06:50:22.618Z,100043.16
2022-10-09T06:52:49.418Z,100046.13
2022-10-09T06:55:16.214Z,100042.25
2022-10-09T06:57:42.735Z,100045.56
2022-10-09T07:00:10.338Z,100048.63
2022-10-09T07:02:40.566Z,100052.00
2022-10-09T07:05:11.751Z,100052.78
2022-10-09T07:07:39.982Z,100056.03
2022-10-09T07:10:07.279Z,100059.63
2022-10-09T07:12:34.230Z,100058.41
2022-10-09T07:15:00.940Z,100057.16
2022-10-09T07:17:27.554Z,100062.97
2022-10-09T07:19:54.069Z,100061.22
2022-10-09T07:22:26.772Z,100062.97
2022-10-09T07:24:53.551Z,100055.50
2022-10-09T07:27:20.170Z,100066.38
2022-10-09T07:29:46.793Z,100060.59
2022-10-09T07:32:13.408Z,100057.38
2022-10-09T07:34:40.033Z,100058.28
2022-10-09T07:37:06.683Z,100054.56
2022-10-09T07:39:34.551Z,100064.91
2022-10-09T07:42:01.354Z,100058.22
2022-10-09T07:44:27.887Z,100062.56
2022-10-09T07:46:54.395Z,100062.94
2022-10-09T07:49:21.129Z,100068.41
2022-10-09T07:51:47.639Z,100068.97
2022-10-09T07:54:14.344Z,100065.78
2022-10-09T07:56:42.292Z,100072.03
2022-10-09T07:59:15.991Z,100072.09
2022-10-09T08:01:42.860Z,100070.00
2022-10-09T08:04:10.393Z,100058.75
2022-10-09T08:06:36.974Z,100062.84
2022-10-09T08:09:05.420Z,100055.31
2022-10-09T08:11:32.216Z,100052.91
2022-10-09T08:14:00.075Z,100055.88
2022-10-09T08:16:27.649Z,100058.03
2022-10-09T08:18:56.291Z,100054.00
2022-10-09T08:21:22.846Z,100054.22
2022-10-09T08:23:53.500Z,100051.00
2022-10-09T08:26:21.910Z,100050.19
2022-10-09T08:28:51.461Z,100046.44
2022-10-09T08:31:20.688Z,100044.03
2022-10-09T08:33:47.387Z,100044.28
2022-10-09T08:36:14.447Z,100046.22
2022-10-09T08:38:48.854Z,100040.81
2022-10-09T08:41:23.242Z,100034.06
2022-10-09T08:43:55.913Z,100033.19
2022-10-09T08:46:28.544Z,100022.00
2022-10-09T08:48:55.858Z,100019.56
2022-10-09T08:51:27.894Z,100021.16
2022-10-09T08:54:01.480Z,100026.97
2022-10-09T08:56:30.310Z,100023.81
2022-10-09T08:58:56.955Z,100009.81
2022-10-09T09:01:33.103Z,100006.34
2022-10-09T09:04:14.152Z,100006.59
2022-10-09T09:06:47.644Z,99997.41
2022-10-09T09:09:20.549Z,99998.38
2022-10-09T09:11:53.094Z,99998.84
2022-10-09T09:14:34.776Z,99992.19
2022-10-09T09:17:11.086Z,99989.66
2022-10-09T09:19:48.640Z,99986.03
2022-10-09T09:22:16.628Z,99993.13
2022-10-09T09:24:48.496Z,99995.06
2022-10-09T09:27:18.516Z,99993.38
2022-10-09T09:29:48.569Z,99985.34
2022-10-09T09:32:20.293Z,99997.16
2022-10-09T09:34:47.334Z,99992.97
2022-10-09T09:37:13.931Z,99993.75
2022-10-09T09:42:28.387Z,100000.72
2022-10-09T09:44:59.210Z,99999.13
2022-10-09T09:47:34.473Z,100001.44
2022-10-09T09:50:03.555Z,99999.81
2022-10-09T09:52:36.022Z,99994.75
2022-10-09T09:55:04.649Z,99994.66
2022-10-09T09:57:34.328Z,99987.03
2022-10-09T10:00:23.421Z,99982.50
2022-10-09T10:03:02.354Z,99984.69
2022-10-09T10:05:36.150Z,99975.44
2022-10-09T10:08:13.059Z,99978.13
2022-10-09T10:10:44.724Z,99967.78
2022-10-09T10:13:15.302Z,99977.53
2022-10-09T10:15:49.371Z,99970.75
2022-10-09T10:18:18.952Z,99971.34
2022-10-09T10:20:47.530Z,99969.75
2022-10-09T10:23:23.919Z,99963.25
2022-10-09T10:28:26.710Z,99964.97
2022-10-09T10:30:56.063Z,99948.22
2022-10-09T10:33:28.930Z,99947.16
2022-10-09T10:35:57.814Z,99936.91
2022-10-09T10:38:29.620Z,99931.00
2022-10-09T10:41:05.075Z,99923.63
2022-10-09T10:43:38.932Z,99928.03
2022-10-09T10:46:15.388Z,99923.63
2022-10-09T10:48:45.096Z,99917.81
2022-10-09T10:51:41.673Z,99912.13
2022-10-09T10:54:20.287Z,99920.41
2022-10-09T10:56:51.126Z,99910.09
2022-10-09T10:59:37.253Z,99906.19
2022-10-09T11:02:33.463Z,99905.72
2022-10-09T11:05:15.360Z,99902.34
2022-10-09T11:07:49.414Z,99899.91
2022-10-09T11:10:24.151Z,99895.81
2022-10-09T11:12:58.056Z,99882.81
2022-10-09T11:15:32.944Z,99879.47
2022-10-09T11:18:08.000Z,99877.66
2022-10-09T11:20:57.235Z,99863.69
2022-10-09T11:23:38.160Z,99868.47
2022-10-09T11:26:13.165Z,99866.69
2022-10-09T11:28:46.503Z,99856.06
2022-10-09T11:31:16.517Z,99847.44
2022-10-09T11:33:46.858Z,99849.47
2022-10-09T11:36:20.096Z,99834.03
2022-10-09T11:38:51.854Z,99843.59
2022-10-09T11:41:19.040Z,99840.63
2022-10-09T11:44:01.365Z,99838.47
2022-10-09T11:46:44.628Z,99832.84
2022-10-09T11:49:19.996Z,99825.59
2022-10-09T11:51:57.172Z,99813.00
2022-10-09T11:54:25.507Z,99806.25
2022-10-09T11:56:54.888Z,99806.31
2022-10-09T11:59:23.436Z,99794.22
2022-10-09T12:01:50.056Z,99782.91
2022-10-09T12:04:37.443Z,99780.84
2022-10-09T12:07:11.911Z,99779.28
2022-10-09T12:09:41.498Z,99785.69
2022-10-09T12:12:22.748Z,99764.72
2022-10-09T12:14:51.871Z,99770.69
2022-10-09T12:17:32.856Z,99762.13
2022-10-09T12:20:04.980Z,99753.34
2022-10-09T12:22:36.350Z,99745.38
2022-10-09T12:25:06.347Z,99746.38
2022-10-09T12:27:36.525Z,99736.22
2022-10-09T12:30:15.940Z,99744.28
2022-10-09T12:32:48.345Z,99739.75
2022-10-09T12:35:22.355Z,99733.50
2022-10-09T12:37:50.356Z,99724.69
2022-10-09T12:40:22.148Z,99723.94
2022-10-09T12:42:50.166Z,99716.16
2022-10-09T12:45:19.245Z,99720.47
2022-10-09T12:47:46.464Z,99715.31
2022-10-09T12:50:22.615Z,99717.28
2022-10-09T12:52:52.752Z,99714.03
2022-10-09T12:55:25.702Z,99712.94
2022-10-09T12:57:53.250Z,99704.63
2022-10-09T13:00:19.848Z,99700.25
2022-10-09T13:02:46.532Z,99701.09
2022-10-09T13:05:13.230Z,99703.44
2022-10-09T13:07:40.048Z,99692.34
2022-10-09T13:10:17.883Z,99695.16
2022-10-09T13:12:50.811Z,99687.19
2022-10-09T13:15:30.691Z,99686.00
2022-10-09T13:17:57.333Z,99684.81
2022-10-09T13:20:26.602Z,99682.84
2022-10-09T13:22:53.831Z,99678.88
2022-10-09T13:25:22.019Z,99677.69
2022-10-09T13:27:48.768Z,99675.31
2022-10-09T13:30:15.629Z,99674.88
2022-10-09T13:32:42.096Z,99662.63
2022-10-09T13:35:09.639Z,99666.19
2022-10-09T13:37:36.278Z,99660.63
2022-10-09T13:40:03.494Z,99659.84
2022-10-09T13:42:36.303Z,99659.06
2022-10-09T13:45:03.019Z,99651.91
2022-10-09T13:47:29.717Z,99655.47
2022-10-09T13:49:56.427Z,99649.53
2022-10-09T13:52:22.965Z,99639.63
2022-10-09T13:54:49.484Z,99638.84
2022-10-09T13:57:16.000Z,99628.91
2022-10-09T13:59:44.168Z,99629.69
2022-10-09T14:02:11.490Z,99614.66
2022-10-09T14:04:38.317Z,99618.63
2022-10-09T14:07:04.914Z,99616.25
2022-10-09T14:09:31.392Z,99616.22
2022-10-09T14:11:58.038Z,99615.03
2022-10-09T14:14:24.584Z,99615.03
2022-10-09T14:16:52.512Z,99615.03
2022-10-09T14:19:19.152Z,99603.53
2022-10-09T14:21:45.665Z,99596.81
2022-10-09T14:24:12.337Z,99600.38
2022-10-09T14:26:38.870Z,99589.28
2022-10-09T14:29:05.379Z,99582.13
2022-10-09T14:31:31.982Z,99581.72
2022-10-09T14:33:59.866Z,99574.19
2022-10-09T14:36:27.415Z,99576.56
2022-10-09T14:38:54.052Z,99574.13
2022-10-09T14:41:21.555Z,99568.59
2022-10-09T14:43:53.745Z,99569.03
2022-10-09T14:46:20.367Z,99559.91
2022-10-09T14:48:47.284Z,99554.31
2022-10-09T14:51:17.159Z,99560.66
2022-10-09T14:53:43.868Z,99557.09
2022-10-09T14:56:13.323Z,99551.59
2022-10-09T14:58:40.568Z,99549.59
2022-10-09T15:01:07.800Z,99552.72
2022-10-09T15:03:35.416Z,99548.63
2022-10-09T15:06:05.538Z,99550.22
2022-10-09T15:08:34.967Z,99545.84
2022-10-09T15:11:02.085Z,99546.09
2022-10-09T15:13:29.144Z,99543.44
2022-10-09T15:15:58.879Z,99537.56
2022-10-09T15:18:25.782Z,99532.09
2022-10-09T15:20:52.524Z,99532.75
2022-10-09T15:23:19.575Z,99531.94
2022-10-09T15:25:49.608Z,99529.88
2022-10-09T15:28:16.663Z,99523.59
2022-10-09T15:30:44.554Z,99525.13
2022-10-09T15:33:11.203Z,99513.19
2022-10-09T15:35:37.695Z,99505.41
2022-10-09T15:38:04.299Z,99508.22
2022-10-09T15:40:30.775Z,99497.41
2022-10-09T15:42:58.711Z,99502.78
2022-10-09T15:45:25.222Z,99495.69
2022-10-09T15:47:52.379Z,99494.75
2022-10-09T15:50:19.004Z,99485.75
2022-10-09T15:52:45.489Z,99489.78
2022-10-09T15:55:11.980Z,99481.97
2022-10-09T15:57:38.572Z,99480.25
2022-10-09T16:00:08.009Z,99476.13
2022-10-09T16:02:35.942Z,99476.31
2022-10-09T16:05:02.478Z,99481.94
2022-10-09T16:07:29.078Z,99483.03
2022-10-09T16:09:55.606Z,99483.53
2022-10-09T16:12:22.261Z,99478.28
2022-10-09T16:14:48.793Z,99475.72
2022-10-09T16:17:16.674Z,99478.84
2022-10-09T16:19:43.161Z,99478.91
2022-10-09T16:22:09.796Z,99473.72
2022-10-09T16:24:36.304Z,99474.72
2022-10-09T16:27:03.040Z,99465.13
2022-10-09T16:29:30.008Z,99466.31
2022-10-09T16:31:56.539Z,99471.88
2022-10-09T16:34:24.442Z,99470.56
2022-10-09T16:36:50.942Z,99471.03
2022-10-09T16:39:17.481Z,99466.13
2022-10-09T16:41:43.998Z,99467.03
2022-10-09T16:44:13.391Z,99470.22
2022-10-09T16:46:39.958Z,99474.31
2022-10-09T16:49:06.865Z,99477.84
2022-10-09T16:51:35.993Z,99473.69
2022-10-09T16:54:05.112Z,99471.44
2022-10-09T16:56:34.862Z,99472.88
2022-10-09T16:59:03.414Z,99476.97
2022-10-09T17:01:30.680Z,99476.94
2022-10-09T17:03:58.831Z,99476.84
2022-10-09T17:06:26.971Z,99485.94
2022-10-09T17:08:57.186Z,99483.28
2022-10-09T17:11:25.567Z,99479.81
2022-10-09T17:13:53.128Z,99483.75
2022-10-09T17:16:21.990Z,99479.31
2022-10-09T17:18:48.847Z,99476.75
2022-10-09T17:21:17.126Z,99475.06
2022-10-09T17:23:44.415Z,99475.22
2022-10-09T17:26:15.209Z,99475.22
2022-10-09T17:28:42.499Z,99466.94
2022-10-09T17:31:12.358Z,99464.81
2022-10-09T17:33:38.932Z,99470.22
2022-10-09T17:36:05.764Z,99473.75
2022-10-09T17:38:32.306Z,99471.78
2022-10-09T17:40:58.911Z,99466.91
2022-10-09T17:43:26.951Z,99463.34
2022-10-09T17:45:53.470Z,99455.47
2022-10-09T17:48:20.025Z,99466.78
2022-10-09T17:50:51.266Z,99462.44
2022-10-09T17:53:17.831Z,99472.63
2022-10-09T17:55:44.453Z,99461.41
2022-10-09T17:58:11.134Z,99457.28
2022-10-09T18:00:39.075Z,99460.25
2022-10-09T18:03:05.891Z,99467.53
2022-10-09T18:05:32.796Z,99452.50
2022-10-09T18:07:59.383Z,99460.75
2022-10-09T18:10:25.922Z,99457.34
2022-10-09T18:12:52.481Z,99458.91
2022-10-09T18:15:19.068Z,99453.41
2022-10-09T18:17:47.057Z,99455.22
2022-10-09T18:20:13.627Z,99461.47
2022-10-09T18:22:40.268Z,99462.03
2022-10-09T18:25:08.949Z,99451.38
2022-10-09T18:27:35.650Z,99459.75
2022-10-09T18:30:02.219Z,99458.25
2022-10-09T18:32:29.288Z,99457.94
2022-10-09T18:34:57.206Z,99453.22
2022-10-09T18:37:23.864Z,99450.13
2022-10-09T18:39:50.488Z,99452.13
2022-10-09T18:42:17.056Z,99449.31
2022-10-09T18:44:43.593Z,99442.41
2022-10-09T18:47:14.419Z,99434.16
2022-10-09T18:49:43.784Z,99436.44
2022-10-09T18:52:12.717Z,99439.84
2022-10-09T18:54:40.021Z,99440.75
2022-10-09T18:57:06.835Z,99442.03
2022-10-09T18:59:35.466Z,99444.31
2022-10-09T19:02:02.918Z,99440.59
2022-10-09T19:04:29.633Z,99428.78
2022-10-09T19:06:56.857Z,99431.25
2022-10-09T19:09:24.853Z,99439.66
2022-10-09T19:11:51.660Z,99435.16
2022-10-09T19:14:18.800Z,99434.75
2022-10-09T19:16:45.390Z,99433.19
2022-10-09T19:19:11.930Z,99435.47
2022-10-09T19:21:38.469Z,99431.56
2022-10-09T19:24:05.456Z,99432.63
2022-10-09T19:26:34.992Z,99429.41
2022-10-09T19:29:01.637Z,99427.69
2022-10-09T19:31:28.310Z,99426.44
2022-10-09T19:33:54.832Z,99431.13
2022-10-09T19:36:21.350Z,99423.88
2022-10-09T19:38:47.833Z,99417.97
2022-10-09T19:41:15.727Z,99416.38
2022-10-09T19:43:43.688Z,99409.03
2022-10-09T19:46:13.819Z,99410.16
2022-10-09T19:48:40.626Z,99402.91
2022-10-09T19:51:08.399Z,99414.81
2022-10-09T19:53:35.357Z,99413.81
2022-10-09T19:56:02.236Z,99412.75
2022-10-09T19:58:29.131Z,99406.53
2022-10-09T20:00:57.088Z,99409.25
2022-10-09T20:03:23.693Z,99393.91
2022-10-09T20:05:50.367Z,99405.81
2022-10-09T20:08:16.867Z,99394.22
2022-10-09T20:10:43.550Z,99392.88
2022-10-09T20:13:10.110Z,99397.78
2022-10-09T20:15:41.548Z,99399.38
2022-10-09T20:18:09.604Z,99389.75
2022-10-09T20:20:37.020Z,99393.81
2022-10-09T20:23:03.525Z,99391.41
2022-10-09T20:25:30.066Z,99385.00
2022-10-09T20:27:56.551Z,99384.75
2022-10-09T20:30:23.092Z,99382.06
2022-10-09T20:32:49.853Z,99380.25
2022-10-09T20:35:18.789Z,99384.31
2022-10-09T20:37:45.274Z,99378.97
2022-10-09T20:40:11.990Z,99377.69
2022-10-09T20:42:38.648Z,99376.91
2022-10-09T20:45:06.101Z,99368.91
2022-10-09T20:47:32.731Z,99363.25
2022-10-09T20:49:59.272Z,99364.94
2022-10-09T20:52:27.252Z,99366.88
2022-10-09T20:54:53.772Z,99360.47
2022-10-09T20:57:20.264Z,99359.72
2022-10-09T20:59:46.775Z,99362.47
2022-10-09T21:02:13.726Z,99347.94
2022-10-09T21:04:40.394Z,99348.81
2022-10-09T21:07:06.930Z,99346.69
2022-10-09T21:09:34.775Z,99358.06
2022-10-09T21:12:01.290Z,99344.63
2022-10-09T21:14:27.776Z,99345.50
2022-10-09T21:16:54.278Z,99357.38
2022-10-09T21:19:21.065Z,99340.94
2022-10-09T21:21:50.849Z,99341.53
2022-10-09T21:24:18.061Z,99344.00
2022-10-09T21:26:45.953Z,99346.97
2022-10-09T21:29:13.631Z,99343.53
2022-10-09T21:31:40.144Z,99341.69
2022-10-09T21:34:06.750Z,99342.25
2022-10-09T21:36:46.879Z,99338.44
2022-10-09T21:39:22.621Z,99342.28
2022-10-09T21:41:50.585Z,99343.63
2022-10-09T21:44:18.138Z,99341.50
2022-10-09T21:46:44.653Z,99343.16
2022-10-09T21:49:18.937Z,99334.28
2022-10-09T21:51:45.662Z,99334.31
2022-10-09T21:54:12.166Z,99344.28
2022-10-09T21:56:38.674Z,99347.03
2022-10-09T21:59:06.647Z,99338.44
2022-10-09T22:01:33.207Z,99338.47
2022-10-09T22:03:59.939Z,99336.34
2022-10-09T22:06:26.457Z,99329.91
2022-10-09T22:08:53.079Z,99326.44
2022-10-09T22:11:19.668Z,99336.72
2022-10-09T22:13:46.192Z,99336.97
2022-10-09T22:16:14.974Z,99334.34
2022-10-09T22:18:42.007Z,99341.91
2022-10-09T22:21:11.197Z,99327.09
2022-10-09T22:23:37.841Z,99333.34
2022-10-09T22:26:06.827Z,99330.16
2022-10-09T22:28:34.063Z,99325.59
2022-10-09T22:31:02.727Z,99323.78
2022-10-09T22:33:30.744Z,99323.25
2022-10-09T22:36:08.987Z,99321.69
2022-10-09T22:38:36.284Z,99310.09
2022-10-09T22:41:04.673Z,99307.69
2022-10-09T22:43:31.231Z,99313.88
2022-10-09T22:45:57.766Z,99316.03
2022-10-09T22:48:24.428Z,99304.19
2022-10-09T22:50:52.273Z,99305.59
2022-10-09T22:53:18.801Z,99300.47
2022-10-09T22:55:45.317Z,99303.16
2022-10-09T22:58:11.856Z,99300.75
2022-10-09T23:00:38.667Z,99304.53
2022-10-09T23:03:05.195Z,99293.78
2022-10-09T23:05:31.729Z,99290.84
2022-10-09T23:07:59.572Z,99290.09
2022-10-09T23:10:26.097Z,99284.72
2022-10-09T23:12:52.826Z,99285.81
2022-10-09T23:15:19.599Z,99275.34
2022-10-09T23:17:46.118Z,99273.94
2022-10-09T23:20:12.812Z,99271.00
2022-10-09T23:22:39.287Z,99268.56
2022-10-09T23:25:08.391Z,99259.16
2022-10-09T23:27:34.921Z,99262.09
2022-10-09T23:30:01.569Z,99264.78
2022-10-09T23:32:28.110Z,99256.41
2022-10-09T23:34:54.634Z,99256.13
2022-10-09T23:37:21.194Z,99256.72
2022-10-09T23:39:47.745Z,99248.63
2022-10-09T23:42:15.575Z,99256.19
2022-10-09T23:44:42.246Z,99247.03
2022-10-09T23:47:08.737Z,99246.50
2022-10-09T23:49:35.282Z,99244.63
2022-10-09T23:52:01.801Z,99249.78
2022-10-09T23:54:28.333Z,99247.34
2022-10-09T23:56:54.889Z,99241.69
2022-10-09T23:59:22.762Z,99245.22
